Pitkin, CO (81241)

2:26 PM MDT on May 25, 2017 (GMT -0600)
Pitkin | | Change Station

Elev 9377 ft 38.61 °N, 106.50 °W | Updated 3 minutes ago

Mostly Cloudy
Mostly Cloudy
60.2 °F
Feels Like 60.2 °F
N
10.0
Wind Variable Wind from ESE
Gusts 33.0 mph

Today
High -- | Low -- °F
--% Chance of Precip.
Yesterday
High -- | Low -- °F
Precip. -- in
Pressure 29.54 in
Visibility 10.0 miles
Clouds Clear
Dew Point 18 °F
Humidity 19%
Rainfall 0.00 in
Snow Depth Not available.
5:46 AM 8:19 PM
New Moon, 0% visible
METAR KGUC 251956Z AUTO 25022G34KT 10SM CLR 21/M06 A2976 RMK AO2 PK WND 25035/1924 SLP001 T02111056
Pressure 29.54 in
Visibility 10.0 miles
Clouds Clear
Dew Point 18 °F
Humidity 19%
Rainfall 0.00 in
Snow Depth Not available.
5:46 AM 8:19 PM
New Moon, 0% visible
METAR KGUC 251956Z AUTO 25022G34KT 10SM CLR 21/M06 A2976 RMK AO2 PK WND 25035/1924 SLP001 T02111056

Get Your Daily Forecast Email!

Thanks for signing up!

Be on the lookout for a verification email in your inbox.

You'll start receiving severe weather alerts in your inbox..

×

10-Day Weather Forecast

Almanac

Astronomy

May. 25, 2017 Rise Set
Actual Time
Civil Twilight
Nautical Twilight
Astronomical Twilight
Moon
Length of Visible Light
Length of Day
Tomorrow will be .
, % of the Moon is Illuminated

Today's Extremes

State Highs State Lows

Community

WunderPhotos

Category 6

Welcome to Category 6. This is the collective home for Weather Underground's featured writeups by Dr. Jeff Masters (right), Bob Henson (left), Chris Burt, and other regular contributors.

Nearby

Air Quality

  Air Quality AQ Index Pollutant
Not available.

Snow Depth

Station Depth Elevation

Earthquake Activity

City Distance Mag. Time & Date
Minimum magnitude displayed is 2.5.

Coastal Water Temperatures

Place Temperature

Stations

Nearby Weather Stations

Station Location Temp. Windchill Dew Point Humidity Wind Precip. Elev Updated Type
                   

Watches & Warnings

Flood Advisory
Issued: 1:41 PM MDT May. 25, 2017 – National Weather Service

The flood advisory continues for
the Gunnison river at Delta
* until Monday evening.
* At 01 PM Thursday the stage was 9.6 feet.
* Bankfull stage is 8.0 feet.
* Flood stage is 12.0 feet.
* Forecast... the Gunnison river has already peaked at Delta and will continue to fall.